sensor_id;sensor_type;location;lat;lon;timestamp;pressure;altitude;pressure_sealevel;temperature;humidity
66945;BME280;53853;51.982;5.928;2023-07-31T00:01:44;100900.81;;;16.96;79.40
66945;BME280;53853;51.982;5.928;2023-07-31T00:04:17;100905.00;;;16.99;79.52
66945;BME280;53853;51.982;5.928;2023-07-31T00:06:47;100899.63;;;16.99;80.44
66945;BME280;53853;51.982;5.928;2023-07-31T00:09:16;100894.03;;;17.00;80.04
66945;BME280;53853;51.982;5.928;2023-07-31T00:11:46;100889.28;;;17.02;79.86
66945;BME280;53853;51.982;5.928;2023-07-31T00:14:16;100880.84;;;17.06;79.63
66945;BME280;53853;51.982;5.928;2023-07-31T00:16:46;100875.44;;;17.06;79.85
66945;BME280;53853;51.982;5.928;2023-07-31T00:19:19;100864.28;;;17.09;79.35
66945;BME280;53853;51.982;5.928;2023-07-31T00:21:50;100881.28;;;17.09;79.19
66945;BME280;53853;51.982;5.928;2023-07-31T00:24:19;100866.59;;;17.12;79.00
66945;BME280;53853;51.982;5.928;2023-07-31T00:26:49;100865.56;;;17.13;78.95
66945;BME280;53853;51.982;5.928;2023-07-31T00:29:19;100865.56;;;17.13;78.90
66945;BME280;53853;51.982;5.928;2023-07-31T00:31:49;100866.22;;;17.15;78.83
66945;BME280;53853;51.982;5.928;2023-07-31T00:34:21;100862.69;;;17.14;78.83
66945;BME280;53853;51.982;5.928;2023-07-31T00:36:51;100860.84;;;17.15;79.97
66945;BME280;53853;51.982;5.928;2023-07-31T00:39:21;100860.44;;;17.18;80.30
66945;BME280;53853;51.982;5.928;2023-07-31T00:41:51;100854.03;;;17.19;80.41
66945;BME280;53853;51.982;5.928;2023-07-31T00:44:21;100855.69;;;17.20;80.15
66945;BME280;53853;51.982;5.928;2023-07-31T00:46:51;100845.56;;;17.22;80.83
66945;BME280;53853;51.982;5.928;2023-07-31T00:49:24;100846.22;;;17.24;81.09
66945;BME280;53853;51.982;5.928;2023-07-31T00:51:54;100844.78;;;17.28;81.75
66945;BME280;53853;51.982;5.928;2023-07-31T00:54:26;100843.78;;;17.29;82.05
66945;BME280;53853;51.982;5.928;2023-07-31T00:56:56;100838.00;;;17.32;82.84
66945;BME280;53853;51.982;5.928;2023-07-31T00:59:26;100832.41;;;17.34;84.09
66945;BME280;53853;51.982;5.928;2023-07-31T01:01:56;100838.44;;;17.36;84.24
66945;BME280;53853;51.982;5.928;2023-07-31T01:04:28;100838.88;;;17.39;84.33
66945;BME280;53853;51.982;5.928;2023-07-31T01:07:03;100836.84;;;17.42;84.31
66945;BME280;53853;51.982;5.928;2023-07-31T01:09:40;100835.59;;;17.44;85.13
66945;BME280;53853;51.982;5.928;2023-07-31T01:12:15;100836.88;;;17.48;85.80
66945;BME280;53853;51.982;5.928;2023-07-31T01:15:03;100834.00;;;17.50;86.01
66945;BME280;53853;51.982;5.928;2023-07-31T01:17:35;100837.13;;;17.53;86.46
66945;BME280;53853;51.982;5.928;2023-07-31T01:20:12;100822.44;;;17.56;86.58
66945;BME280;53853;51.982;5.928;2023-07-31T01:23:16;100824.06;;;17.57;86.57
66945;BME280;53853;51.982;5.928;2023-07-31T01:26:00;100825.13;;;17.56;86.76
66945;BME280;53853;51.982;5.928;2023-07-31T01:28:39;100828.44;;;17.58;86.61
66945;BME280;53853;51.982;5.928;2023-07-31T01:31:13;100823.69;;;17.60;86.55
66945;BME280;53853;51.982;5.928;2023-07-31T01:33:44;100819.16;;;17.61;86.36
66945;BME280;53853;51.982;5.928;2023-07-31T01:36:15;100815.22;;;17.63;86.40
66945;BME280;53853;51.982;5.928;2023-07-31T01:38:45;100824.97;;;17.64;86.15
66945;BME280;53853;51.982;5.928;2023-07-31T01:41:17;100818.56;;;17.65;86.26
66945;BME280;53853;51.982;5.928;2023-07-31T01:43:47;100819.19;;;17.67;86.02
66945;BME280;53853;51.982;5.928;2023-07-31T01:46:17;100817.13;;;17.69;85.58
66945;BME280;53853;51.982;5.928;2023-07-31T01:48:47;100812.97;;;17.67;85.53
66945;BME280;53853;51.982;5.928;2023-07-31T01:51:17;100808.41;;;17.67;85.34
66945;BME280;53853;51.982;5.928;2023-07-31T01:53:47;100806.34;;;17.69;85.29
66945;BME280;53853;51.982;5.928;2023-07-31T01:56:20;100797.22;;;17.70;85.19
66945;BME280;53853;51.982;5.928;2023-07-31T01:58:50;100792.47;;;17.72;85.15
66945;BME280;53853;51.982;5.928;2023-07-31T02:01:19;100788.28;;;17.70;84.73
66945;BME280;53853;51.982;5.928;2023-07-31T02:03:50;100789.16;;;17.70;84.72
66945;BME280;53853;51.982;5.928;2023-07-31T02:06:23;100795.16;;;17.72;84.75
66945;BME280;53853;51.982;5.928;2023-07-31T02:08:53;100791.66;;;17.72;84.48
66945;BME280;53853;51.982;5.928;2023-07-31T02:11:25;100790.78;;;17.71;84.33
66945;BME280;53853;51.982;5.928;2023-07-31T02:13:55;100789.34;;;17.69;84.31
66945;BME280;53853;51.982;5.928;2023-07-31T02:16:25;100789.53;;;17.67;84.20
66945;BME280;53853;51.982;5.928;2023-07-31T02:18:55;100782.47;;;17.66;84.41
66945;BME280;53853;51.982;5.928;2023-07-31T02:21:26;100779.78;;;17.66;84.67
66945;BME280;53853;51.982;5.928;2023-07-31T02:23:56;100778.97;;;17.66;84.99
66945;BME280;53853;51.982;5.928;2023-07-31T02:26:29;100773.56;;;17.66;85.25
66945;BME280;53853;51.982;5.928;2023-07-31T02:28:59;100784.34;;;17.66;85.33
66945;BME280;53853;51.982;5.928;2023-07-31T02:31:29;100780.56;;;17.60;85.64
66945;BME280;53853;51.982;5.928;2023-07-31T02:33:59;100783.84;;;17.55;86.08
66945;BME280;53853;51.982;5.928;2023-07-31T02:36:29;100773.88;;;17.49;86.48
66945;BME280;53853;51.982;5.928;2023-07-31T02:38:59;100765.34;;;17.46;86.70
66945;BME280;53853;51.982;5.928;2023-07-31T02:41:31;100758.94;;;17.47;86.92
66945;BME280;53853;51.982;5.928;2023-07-31T02:44:02;100769.72;;;17.47;87.27
66945;BME280;53853;51.982;5.928;2023-07-31T02:46:32;100766.00;;;17.48;87.07
66945;BME280;53853;51.982;5.928;2023-07-31T02:49:02;100752.31;;;17.49;86.74
66945;BME280;53853;51.982;5.928;2023-07-31T02:51:32;100774.72;;;17.50;86.46
66945;BME280;53853;51.982;5.928;2023-07-31T02:54:02;100763.94;;;17.50;86.27
66945;BME280;53853;51.982;5.928;2023-07-31T02:56:34;100770.34;;;17.49;86.26
66945;BME280;53853;51.982;5.928;2023-07-31T02:59:04;100772.03;;;17.50;86.64
66945;BME280;53853;51.982;5.928;2023-07-31T03:01:34;100779.72;;;17.53;85.93
66945;BME280;53853;51.982;5.928;2023-07-31T03:04:01;100766.47;;;17.58;86.09
66945;BME280;53853;51.982;5.928;2023-07-31T03:06:31;100768.34;;;17.58;85.74
66945;BME280;53853;51.982;5.928;2023-07-31T03:09:01;100768.34;;;17.58;85.70
66945;BME280;53853;51.982;5.928;2023-07-31T03:11:33;100764.78;;;17.57;85.04
66945;BME280;53853;51.982;5.928;2023-07-31T03:14:03;100763.53;;;17.53;84.87
66945;BME280;53853;51.982;5.928;2023-07-31T03:16:33;100767.25;;;17.52;84.76
66945;BME280;53853;51.982;5.928;2023-07-31T03:19:03;100768.47;;;17.49;84.92
66945;BME280;53853;51.982;5.928;2023-07-31T03:21:33;100764.97;;;17.49;84.74
66945;BME280;53853;51.982;5.928;2023-07-31T03:24:03;100773.25;;;17.47;84.44
66945;BME280;53853;51.982;5.928;2023-07-31T03:26:36;100764.75;;;17.50;84.55
66945;BME280;53853;51.982;5.928;2023-07-31T03:29:08;100759.56;;;17.49;84.00
66945;BME280;53853;51.982;5.928;2023-07-31T03:31:38;100762.25;;;17.49;83.88
66945;BME280;53853;51.982;5.928;2023-07-31T03:34:08;100760.63;;;17.48;83.87
66945;BME280;53853;51.982;5.928;2023-07-31T03:36:38;100761.44;;;17.48;83.46
66945;BME280;53853;51.982;5.928;2023-07-31T03:39:07;100758.94;;;17.47;83.46
66945;BME280;53853;51.982;5.928;2023-07-31T03:41:40;100766.00;;;17.48;83.35
66945;BME280;53853;51.982;5.928;2023-07-31T03:44:10;100760.63;;;17.48;83.06
66945;BME280;53853;51.982;5.928;2023-07-31T03:46:40;100760.38;;;17.49;83.29
66945;BME280;53853;51.982;5.928;2023-07-31T03:49:10;100749.84;;;17.48;82.41
66945;BME280;53853;51.982;5.928;2023-07-31T03:51:39;100757.69;;;17.49;82.43
66945;BME280;53853;51.982;5.928;2023-07-31T03:54:09;100747.78;;;17.50;82.46
66945;BME280;53853;51.982;5.928;2023-07-31T03:56:42;100750.28;;;17.51;82.60
66945;BME280;53853;51.982;5.928;2023-07-31T03:59:12;100754.41;;;17.54;82.23
66945;BME280;53853;51.982;5.928;2023-07-31T04:01:42;100756.09;;;17.55;81.76
66945;BME280;53853;51.982;5.928;2023-07-31T04:04:12;100749.22;;;17.52;81.23
66945;BME280;53853;51.982;5.928;2023-07-31T04:06:42;100754.81;;;17.51;81.14
66945;BME280;53853;51.982;5.928;2023-07-31T04:09:12;100753.97;;;17.50;81.24
66945;BME280;53853;51.982;5.928;2023-07-31T04:11:44;100751.09;;;17.52;81.17
66945;BME280;53853;51.982;5.928;2023-07-31T04:14:14;100751.28;;;17.50;80.97
66945;BME280;53853;51.982;5.928;2023-07-31T04:16:44;100744.03;;;17.51;80.65
66945;BME280;53853;51.982;5.928;2023-07-31T04:19:14;100748.41;;;17.52;80.78
66945;BME280;53853;51.982;5.928;2023-07-31T04:21:44;100743.84;;;17.52;80.41
66945;BME280;53853;51.982;5.928;2023-07-31T04:24:13;100740.31;;;17.52;80.49
66945;BME280;53853;51.982;5.928;2023-07-31T04:26:54;100735.56;;;17.54;80.36
66945;BME280;53853;51.982;5.928;2023-07-31T04:29:23;100730.81;;;17.56;80.66
66945;BME280;53853;51.982;5.928;2023-07-31T04:31:53;100731.63;;;17.56;80.11
66945;BME280;53853;51.982;5.928;2023-07-31T04:34:23;100727.06;;;17.57;79.87
66945;BME280;53853;51.982;5.928;2023-07-31T04:36:53;100730.63;;;17.58;80.08
66945;BME280;53853;51.982;5.928;2023-07-31T04:39:23;100722.34;;;17.59;79.83
66945;BME280;53853;51.982;5.928;2023-07-31T04:41:55;100724.19;;;17.59;79.92
66945;BME280;53853;51.982;5.928;2023-07-31T04:44:25;100721.28;;;17.60;80.14
66945;BME280;53853;51.982;5.928;2023-07-31T04:46:55;100716.56;;;17.62;80.19
66945;BME280;53853;51.982;5.928;2023-07-31T04:49:25;100709.72;;;17.66;80.33
66945;BME280;53853;51.982;5.928;2023-07-31T04:51:55;100720.91;;;17.70;80.28
66945;BME280;53853;51.982;5.928;2023-07-31T04:54:25;100712.63;;;17.71;79.91
66945;BME280;53853;51.982;5.928;2023-07-31T04:56:57;100710.59;;;17.73;80.03
66945;BME280;53853;51.982;5.928;2023-07-31T04:59:27;100709.53;;;17.74;80.07
66945;BME280;53853;51.982;5.928;2023-07-31T05:01:58;100707.91;;;17.73;79.66
66945;BME280;53853;51.982;5.928;2023-07-31T05:04:28;100710.38;;;17.75;79.79
66945;BME280;53853;51.982;5.928;2023-07-31T05:06:58;100705.81;;;17.75;80.00
66945;BME280;53853;51.982;5.928;2023-07-31T05:09:28;100706.66;;;17.76;79.40
66945;BME280;53853;51.982;5.928;2023-07-31T05:12:00;100714.72;;;17.76;79.30
66945;BME280;53853;51.982;5.928;2023-07-31T05:14:30;100705.63;;;17.77;79.59
66945;BME280;53853;51.982;5.928;2023-07-31T05:17:00;100710.19;;;17.77;79.38
66945;BME280;53853;51.982;5.928;2023-07-31T05:19:30;100695.66;;;17.78;79.30
66945;BME280;53853;51.982;5.928;2023-07-31T05:22:00;100694.00;;;17.77;79.13
66945;BME280;53853;51.982;5.928;2023-07-31T05:24:29;100689.25;;;17.79;79.24
66945;BME280;53853;51.982;5.928;2023-07-31T05:27:03;100693.41;;;17.81;79.29
66945;BME280;53853;51.982;5.928;2023-07-31T05:29:33;100685.53;;;17.80;78.92
66945;BME280;53853;51.982;5.928;2023-07-31T05:32:04;100684.69;;;17.79;79.48
66945;BME280;53853;51.982;5.928;2023-07-31T05:34:34;100694.84;;;17.77;79.51
66945;BME280;53853;51.982;5.928;2023-07-31T05:37:04;100691.13;;;17.78;79.96
66945;BME280;53853;51.982;5.928;2023-07-31T05:39:34;100688.22;;;17.80;80.05
66945;BME280;53853;51.982;5.928;2023-07-31T05:42:07;100687.38;;;17.79;80.58
66945;BME280;53853;51.982;5.928;2023-07-31T05:44:37;100685.72;;;17.78;80.64
66945;BME280;53853;51.982;5.928;2023-07-31T05:47:07;100677.00;;;17.76;80.92
66945;BME280;53853;51.982;5.928;2023-07-31T05:49:37;100678.25;;;17.73;81.15
66945;BME280;53853;51.982;5.928;2023-07-31T05:52:07;100685.88;;;17.70;81.26
66945;BME280;53853;51.982;5.928;2023-07-31T05:54:37;100684.44;;;17.67;81.69
66945;BME280;53853;51.982;5.928;2023-07-31T05:57:09;100684.22;;;17.62;81.92
66945;BME280;53853;51.982;5.928;2023-07-31T05:59:39;100690.63;;;17.61;82.07
66945;BME280;53853;51.982;5.928;2023-07-31T06:02:09;100679.84;;;17.61;82.41
66945;BME280;53853;51.982;5.928;2023-07-31T06:04:39;100658.69;;;17.58;82.74
66945;BME280;53853;51.982;5.928;2023-07-31T06:07:09;100671.97;;;17.60;83.10
66945;BME280;53853;51.982;5.928;2023-07-31T06:09:39;100670.28;;;17.59;83.30
66945;BME280;53853;51.982;5.928;2023-07-31T06:12:11;100654.13;;;17.59;83.26
66945;BME280;53853;51.982;5.928;2023-07-31T06:14:44;100658.91;;;17.63;83.35
66945;BME280;53853;51.982;5.928;2023-07-31T06:17:14;100655.81;;;17.66;83.43
66945;BME280;53853;51.982;5.928;2023-07-31T06:19:45;100642.97;;;17.68;83.60
66945;BME280;53853;51.982;5.928;2023-07-31T06:22:15;100642.75;;;17.70;83.92
66945;BME280;53853;51.982;5.928;2023-07-31T06:24:46;100646.72;;;17.74;84.27
66945;BME280;53853;51.982;5.928;2023-07-31T06:27:18;100640.50;;;17.73;84.26
66945;BME280;53853;51.982;5.928;2023-07-31T06:29:48;100635.94;;;17.74;84.31
66945;BME280;53853;51.982;5.928;2023-07-31T06:32:18;100639.47;;;17.74;84.68
66945;BME280;53853;51.982;5.928;2023-07-31T06:34:48;100640.13;;;17.77;84.85
66945;BME280;53853;51.982;5.928;2023-07-31T06:37:18;100626.63;;;17.77;84.85
66945;BME280;53853;51.982;5.928;2023-07-31T06:39:48;100634.72;;;17.77;85.21
66945;BME280;53853;51.982;5.928;2023-07-31T06:42:21;100632.66;;;17.79;85.10
66945;BME280;53853;51.982;5.928;2023-07-31T06:44:50;100616.06;;;17.82;85.27
66945;BME280;53853;51.982;5.928;2023-07-31T06:47:20;100612.34;;;17.83;85.13
66945;BME280;53853;51.982;5.928;2023-07-31T06:49:50;100618.16;;;17.86;85.21
66945;BME280;53853;51.982;5.928;2023-07-31T06:52:20;100622.31;;;17.89;85.11
66945;BME280;53853;51.982;5.928;2023-07-31T06:55:01;100615.91;;;17.90;85.16
66945;BME280;53853;51.982;5.928;2023-07-31T06:57:35;100607.81;;;17.90;85.42
66945;BME280;53853;51.982;5.928;2023-07-31T07:00:07;100609.50;;;17.91;85.34
66945;BME280;53853;51.982;5.928;2023-07-31T07:02:37;100600.34;;;17.92;85.22
66945;BME280;53853;51.982;5.928;2023-07-31T07:05:07;100606.59;;;17.92;85.25
66945;BME280;53853;51.982;5.928;2023-07-31T07:07:37;100619.88;;;17.94;85.66
66945;BME280;53853;51.982;5.928;2023-07-31T07:10:08;100607.41;;;17.93;85.80
66945;BME280;53853;51.982;5.928;2023-07-31T07:12:41;100605.94;;;17.90;85.97
66945;BME280;53853;51.982;5.928;2023-07-31T07:15:11;100606.78;;;17.91;86.28
66945;BME280;53853;51.982;5.928;2023-07-31T07:17:40;100600.16;;;17.93;86.56
66945;BME280;53853;51.982;5.928;2023-07-31T07:20:10;100604.31;;;17.96;86.49
66945;BME280;53853;51.982;5.928;2023-07-31T07:22:40;100595.00;;;17.99;86.67
66945;BME280;53853;51.982;5.928;2023-07-31T07:25:10;100590.00;;;18.02;86.82
66945;BME280;53853;51.982;5.928;2023-07-31T07:27:43;100595.00;;;18.05;86.78
66945;BME280;53853;51.982;5.928;2023-07-31T07:30:13;100578.63;;;18.14;87.00
66945;BME280;53853;51.982;5.928;2023-07-31T07:32:44;100585.25;;;18.18;86.96
66945;BME280;53853;51.982;5.928;2023-07-31T07:35:14;100585.06;;;18.19;86.65
66945;BME280;53853;51.982;5.928;2023-07-31T07:37:44;100597.09;;;18.17;86.52
66945;BME280;53853;51.982;5.928;2023-07-31T07:40:14;100595.81;;;18.13;86.53
66945;BME280;53853;51.982;5.928;2023-07-31T07:42:46;100587.53;;;18.14;86.83
66945;BME280;53853;51.982;5.928;2023-07-31T07:45:16;100583.38;;;18.12;86.52
66945;BME280;53853;51.982;5.928;2023-07-31T07:47:46;100581.50;;;18.12;86.65
66945;BME280;53853;51.982;5.928;2023-07-31T07:50:16;100590.63;;;18.11;86.64
66945;BME280;53853;51.982;5.928;2023-07-31T07:52:46;100576.53;;;18.09;86.84
66945;BME280;53853;51.982;5.928;2023-07-31T07:55:16;100578.19;;;18.10;86.72
66945;BME280;53853;51.982;5.928;2023-07-31T07:57:48;100576.31;;;18.10;86.90
66945;BME280;53853;51.982;5.928;2023-07-31T08:00:18;100583.81;;;18.15;86.85
66945;BME280;53853;51.982;5.928;2023-07-31T08:02:48;100572.81;;;18.17;86.79
66945;BME280;53853;51.982;5.928;2023-07-31T08:05:18;100572.41;;;18.20;86.84
66945;BME280;53853;51.982;5.928;2023-07-31T08:07:48;100567.22;;;18.18;86.60
66945;BME280;53853;51.982;5.928;2023-07-31T08:10:18;100571.56;;;18.19;87.17
66945;BME280;53853;51.982;5.928;2023-07-31T08:12:50;100567.63;;;18.22;87.21
66945;BME280;53853;51.982;5.928;2023-07-31T08:15:20;100563.91;;;18.23;87.12
66945;BME280;53853;51.982;5.928;2023-07-31T08:17:50;100567.63;;;18.22;87.10
66945;BME280;53853;51.982;5.928;2023-07-31T08:20:20;100564.91;;;18.22;87.08
66945;BME280;53853;51.982;5.928;2023-07-31T08:22:50;100557.69;;;18.22;87.22
66945;BME280;53853;51.982;5.928;2023-07-31T08:25:20;100565.97;;;18.21;87.22
66945;BME280;53853;51.982;5.928;2023-07-31T08:27:52;100565.31;;;18.25;87.11
66945;BME280;53853;51.982;5.928;2023-07-31T08:30:22;100554.31;;;18.27;87.28
66945;BME280;53853;51.982;5.928;2023-07-31T08:32:52;100563.06;;;18.29;87.45
66945;BME280;53853;51.982;5.928;2023-07-31T08:35:24;100557.25;;;18.32;87.40
66945;BME280;53853;51.982;5.928;2023-07-31T08:37:55;100552.47;;;18.34;87.80
66945;BME280;53853;51.982;5.928;2023-07-31T08:40:25;100560.16;;;18.37;87.56
66945;BME280;53853;51.982;5.928;2023-07-31T08:42:58;100549.97;;;18.39;87.68
66945;BME280;53853;51.982;5.928;2023-07-31T08:45:30;100554.97;;;18.42;87.62
66945;BME280;53853;51.982;5.928;2023-07-31T08:48:00;100550.16;;;18.44;87.83
66945;BME280;53853;51.982;5.928;2023-07-31T08:50:30;100549.53;;;18.49;87.67
66945;BME280;53853;51.982;5.928;2023-07-31T08:53:00;100553.09;;;18.56;87.94
66945;BME280;53853;51.982;5.928;2023-07-31T08:55:32;100559.94;;;18.59;87.38
66945;BME280;53853;51.982;5.928;2023-07-31T08:58:05;100552.66;;;18.59;86.84
66945;BME280;53853;51.982;5.928;2023-07-31T09:00:36;100552.66;;;18.59;86.96
66945;BME280;53853;51.982;5.928;2023-07-31T09:03:09;100551.00;;;18.58;86.87
66945;BME280;53853;51.982;5.928;2023-07-31T09:05:44;100550.56;;;18.61;86.90
66945;BME280;53853;51.982;5.928;2023-07-31T09:08:17;100552.22;;;18.69;86.95
66945;BME280;53853;51.982;5.928;2023-07-31T09:10:48;100551.38;;;18.75;86.76
66945;BME280;53853;51.982;5.928;2023-07-31T09:13:21;100543.91;;;18.77;86.33
66945;BME280;53853;51.982;5.928;2023-07-31T09:15:51;100547.25;;;18.79;86.35
66945;BME280;53853;51.982;5.928;2023-07-31T09:18:21;100547.88;;;18.75;86.13
66945;BME280;53853;51.982;5.928;2023-07-31T09:21:01;100548.50;;;18.70;86.02
66945;BME280;53853;51.982;5.928;2023-07-31T09:23:42;100547.06;;;18.61;86.30
66945;BME280;53853;51.982;5.928;2023-07-31T09:26:13;100542.91;;;18.58;86.80
66945;BME280;53853;51.982;5.928;2023-07-31T09:29:01;100544.78;;;18.58;86.98
66945;BME280;53853;51.982;5.928;2023-07-31T09:31:39;100542.69;;;18.60;86.94
66945;BME280;53853;51.982;5.928;2023-07-31T09:34:10;100540.81;;;18.54;86.75
66945;BME280;53853;51.982;5.928;2023-07-31T09:36:41;100534.41;;;18.55;86.99
66945;BME280;53853;51.982;5.928;2023-07-31T09:39:12;100538.97;;;18.61;87.35
66945;BME280;53853;51.982;5.928;2023-07-31T09:41:44;100525.47;;;18.61;87.21
66945;BME280;53853;51.982;5.928;2023-07-31T09:44:16;100532.09;;;18.65;87.11
66945;BME280;53853;51.982;5.928;2023-07-31T09:46:46;100530.25;;;18.59;86.72
66945;BME280;53853;51.982;5.928;2023-07-31T09:49:16;100521.31;;;18.58;86.79
66945;BME280;53853;51.982;5.928;2023-07-31T09:51:46;100519.47;;;18.59;86.69
66945;BME280;53853;51.982;5.928;2023-07-31T09:54:17;100518.59;;;18.65;87.03
66945;BME280;53853;51.982;5.928;2023-07-31T09:56:48;100517.97;;;18.70;87.01
66945;BME280;53853;51.982;5.928;2023-07-31T09:59:21;100515.25;;;18.76;86.82
66945;BME280;53853;51.982;5.928;2023-07-31T10:01:53;100518.97;;;18.82;86.78
66945;BME280;53853;51.982;5.928;2023-07-31T10:04:28;100515.06;;;18.85;86.36
66945;BME280;53853;51.982;5.928;2023-07-31T10:07:00;100501.56;;;18.85;86.11
66945;BME280;53853;51.982;5.928;2023-07-31T10:09:32;100521.28;;;18.85;85.53
66945;BME280;53853;51.982;5.928;2023-07-31T10:12:07;100515.44;;;18.81;85.20
66945;BME280;53853;51.982;5.928;2023-07-31T10:14:41;100509.84;;;18.83;85.62
66945;BME280;53853;51.982;5.928;2023-07-31T10:17:12;100511.50;;;18.84;85.59
66945;BME280;53853;51.982;5.928;2023-07-31T10:19:43;100515.25;;;18.90;85.81
66945;BME280;53853;51.982;5.928;2023-07-31T10:22:14;100515.44;;;18.95;85.54
66945;BME280;53853;51.982;5.928;2023-07-31T10:24:46;100510.00;;;19.01;85.70
66945;BME280;53853;51.982;5.928;2023-07-31T10:27:16;100507.28;;;19.08;85.14
66945;BME280;53853;51.982;5.928;2023-07-31T10:29:48;100513.25;;;19.17;85.31
66945;BME280;53853;51.982;5.928;2023-07-31T10:32:19;100512.78;;;19.27;84.98
66945;BME280;53853;51.982;5.928;2023-07-31T10:34:51;100515.06;;;19.36;84.81
66945;BME280;53853;51.982;5.928;2023-07-31T10:37:23;100512.31;;;19.43;84.37
66945;BME280;53853;51.982;5.928;2023-07-31T10:39:58;100511.88;;;19.46;83.88
66945;BME280;53853;51.982;5.928;2023-07-31T10:42:29;100512.47;;;19.48;83.45
66945;BME280;53853;51.982;5.928;2023-07-31T10:45:05;100510.22;;;19.45;82.18
66945;BME280;53853;51.982;5.928;2023-07-31T10:47:42;100507.94;;;19.42;82.15
66945;BME280;53853;51.982;5.928;2023-07-31T10:50:16;100511.88;;;19.46;82.74
66945;BME280;53853;51.982;5.928;2023-07-31T10:52:47;100507.47;;;19.52;83.10
66945;BME280;53853;51.982;5.928;2023-07-31T10:55:32;100508.47;;;19.58;82.30
66945;BME280;53853;51.982;5.928;2023-07-31T10:58:05;100502.88;;;19.59;81.69
66945;BME280;53853;51.982;5.928;2023-07-31T11:00:41;100496.16;;;19.62;82.26
66945;BME280;53853;51.982;5.928;2023-07-31T11:03:12;100497.56;;;19.71;82.50
66945;BME280;53853;51.982;5.928;2023-07-31T11:05:44;100500.50;;;19.69;81.55
66945;BME280;53853;51.982;5.928;2023-07-31T11:08:16;100507.56;;;19.70;81.93
66945;BME280;53853;51.982;5.928;2023-07-31T11:10:49;100507.34;;;19.72;81.96
66945;BME280;53853;51.982;5.928;2023-07-31T11:13:19;100507.34;;;19.72;81.78
66945;BME280;53853;51.982;5.928;2023-07-31T11:15:52;100500.94;;;19.66;81.31
66945;BME280;53853;51.982;5.928;2023-07-31T11:18:22;100497.47;;;19.59;82.06
66945;BME280;53853;51.982;5.928;2023-07-31T11:20:52;100504.50;;;19.60;82.53
66945;BME280;53853;51.982;5.928;2023-07-31T11:23:23;100510.31;;;19.64;83.06
66945;BME280;53853;51.982;5.928;2023-07-31T11:25:53;100505.34;;;19.61;82.64
66945;BME280;53853;51.982;5.928;2023-07-31T11:28:32;100503.69;;;19.60;82.85
66945;BME280;53853;51.982;5.928;2023-07-31T11:31:05;100504.72;;;19.59;83.02
66945;BME280;53853;51.982;5.928;2023-07-31T11:33:38;100507.88;;;19.55;82.88
66945;BME280;53853;51.982;5.928;2023-07-31T11:36:14;100495.84;;;19.51;83.01
66945;BME280;53853;51.982;5.928;2023-07-31T11:38:45;100495.41;;;19.54;83.28
66945;BME280;53853;51.982;5.928;2023-07-31T11:41:16;100489.56;;;19.58;83.39
66945;BME280;53853;51.982;5.928;2023-07-31T11:43:46;100489.94;;;19.61;83.53
66945;BME280;53853;51.982;5.928;2023-07-31T11:46:19;100498.44;;;19.65;83.09
66945;BME280;53853;51.982;5.928;2023-07-31T11:48:50;100498.63;;;19.70;82.98
66945;BME280;53853;51.982;5.928;2023-07-31T11:51:20;100497.34;;;19.72;82.47
66945;BME280;53853;51.982;5.928;2023-07-31T11:53:52;100492.56;;;19.75;82.15
66945;BME280;53853;51.982;5.928;2023-07-31T11:56:24;100499.84;;;19.74;81.83
66945;BME280;53853;51.982;5.928;2023-07-31T11:58:57;100498.63;;;19.77;82.41
66945;BME280;53853;51.982;5.928;2023-07-31T12:01:32;100490.28;;;19.78;82.78
66945;BME280;53853;51.982;5.928;2023-07-31T12:04:02;100490.06;;;19.80;82.52
66945;BME280;53853;51.982;5.928;2023-07-31T12:06:35;100490.66;;;19.82;82.66
66945;BME280;53853;51.982;5.928;2023-07-31T12:09:07;100489.00;;;19.81;82.03
66945;BME280;53853;51.982;5.928;2023-07-31T12:11:43;100489.44;;;19.78;81.74
66945;BME280;53853;51.982;5.928;2023-07-31T12:14:20;100482.19;;;19.78;81.97
66945;BME280;53853;51.982;5.928;2023-07-31T12:16:58;100481.53;;;19.83;81.55
66945;BME280;53853;51.982;5.928;2023-07-31T12:19:28;100484.81;;;19.85;81.57
66945;BME280;53853;51.982;5.928;2023-07-31T12:21:59;100498.13;;;19.86;81.35
66945;BME280;53853;51.982;5.928;2023-07-31T12:24:29;100483.56;;;19.87;80.75
66945;BME280;53853;51.982;5.928;2023-07-31T12:26:59;100486.88;;;19.89;80.79
66945;BME280;53853;51.982;5.928;2023-07-31T12:29:34;100490.78;;;19.94;80.51
66945;BME280;53853;51.982;5.928;2023-07-31T12:32:21;100498.66;;;19.95;80.93
66945;BME280;53853;51.982;5.928;2023-07-31T12:34:52;100486.81;;;19.96;81.23
66945;BME280;53853;51.982;5.928;2023-07-31T12:37:21;100486.81;;;19.96;81.42
66945;BME280;53853;51.982;5.928;2023-07-31T12:39:51;100480.75;;;20.01;81.82
66945;BME280;53853;51.982;5.928;2023-07-31T12:42:21;100482.63;;;20.00;81.70
66945;BME280;53853;51.982;5.928;2023-07-31T12:44:51;100480.13;;;19.99;81.76
66945;BME280;53853;51.982;5.928;2023-07-31T12:47:24;100477.25;;;19.94;82.10
66945;BME280;53853;51.982;5.928;2023-07-31T12:49:53;100464.78;;;19.93;82.57
66945;BME280;53853;51.982;5.928;2023-07-31T12:52:23;100464.00;;;19.85;82.51
66945;BME280;53853;51.982;5.928;2023-07-31T12:54:53;100471.13;;;19.80;82.70
66945;BME280;53853;51.982;5.928;2023-07-31T12:57:23;100467.19;;;19.76;83.17
66945;BME280;53853;51.982;5.928;2023-07-31T12:59:53;100470.38;;;19.66;82.99
66945;BME280;53853;51.982;5.928;2023-07-31T13:02:25;100462.47;;;19.64;83.80
66945;BME280;53853;51.982;5.928;2023-07-31T13:04:55;100469.78;;;19.64;83.94
66945;BME280;53853;51.982;5.928;2023-07-31T13:07:26;100455.19;;;19.65;84.19
66945;BME280;53853;51.982;5.928;2023-07-31T13:09:56;100455.38;;;19.70;84.24
66945;BME280;53853;51.982;5.928;2023-07-31T13:12:25;100444.09;;;19.80;84.48